createdAt,value
2019-01-16T00:00:29.643Z,22.33
2019-01-16T00:03:22.602Z,20.70
2019-01-16T00:06:05.346Z,20.30
2019-01-16T00:08:50.892Z,19.07
2019-01-16T00:11:40.290Z,21.90
2019-01-16T00:14:25.694Z,21.50
2019-01-16T00:17:15.926Z,20.80
2019-01-16T00:20:05.789Z,20.50
2019-01-16T00:22:57.391Z,20.20
2019-01-16T00:25:44.282Z,19.97
2019-01-16T00:28:29.957Z,20.57
2019-01-16T00:31:16.910Z,20.77
2019-01-16T00:33:54.930Z,21.07
2019-01-16T00:36:46.563Z,20.00
2019-01-16T00:39:32.190Z,19.67
2019-01-16T00:42:35.158Z,19.10
2019-01-16T00:45:22.326Z,20.90
2019-01-16T00:48:02.626Z,20.10
2019-01-16T00:50:48.243Z,19.90
2019-01-16T00:53:35.225Z,19.10
2019-01-16T00:56:20.473Z,19.70
2019-01-16T00:59:06.237Z,18.90
2019-01-16T01:01:56.112Z,18.87
2019-01-16T01:04:36.162Z,19.97
2019-01-16T01:07:14.561Z,19.70
2019-01-16T01:10:04.468Z,21.43
2019-01-16T01:12:39.640Z,20.00
2019-01-16T01:15:36.381Z,21.20
2019-01-16T01:18:22.448Z,20.47
2019-01-16T01:21:08.374Z,19.73
2019-01-16T01:23:59.493Z,19.70
2019-01-16T01:26:46.452Z,22.33
2019-01-16T01:29:23.829Z,18.43
2019-01-16T01:32:13.853Z,19.80
2019-01-16T01:35:19.649Z,19.90
2019-01-16T01:38:05.124Z,20.23
2019-01-16T01:40:50.997Z,20.23
2019-01-16T01:43:43.860Z,21.77
2019-01-16T01:46:29.908Z,21.30
2019-01-16T01:49:08.761Z,20.80
2019-01-16T01:52:10.541Z,22.70
2019-01-16T01:54:56.940Z,21.47
2019-01-16T01:57:46.816Z,23.33
2019-01-16T02:00:39.957Z,21.00
2019-01-16T02:03:32.872Z,22.10
2019-01-16T02:06:23.099Z,23.43
2019-01-16T02:09:07.892Z,21.70
2019-01-16T02:11:57.753Z,20.70
2019-01-16T02:14:53.996Z,21.00
2019-01-16T02:17:39.630Z,23.10
2019-01-16T02:20:29.288Z,22.03
2019-01-16T02:23:15.481Z,21.43
2019-01-16T02:26:01.658Z,20.63
2019-01-16T02:28:39.479Z,22.20
2019-01-16T02:31:32.015Z,22.10
2019-01-16T02:34:22.160Z,22.20
2019-01-16T02:37:09.063Z,21.27
2019-01-16T02:39:59.954Z,22.63
2019-01-16T02:42:47.401Z,20.43
2019-01-16T02:45:32.980Z,21.50
2019-01-16T02:48:14.601Z,20.57
2019-01-16T02:51:01.480Z,23.97
2019-01-16T02:53:42.314Z,22.47
2019-01-16T02:56:30.957Z,21.70
2019-01-16T02:59:16.317Z,20.97
2019-01-16T03:02:09.237Z,21.70
2019-01-16T03:04:59.233Z,21.53
2019-01-16T03:07:40.165Z,22.67
2019-01-16T03:10:23.861Z,23.60
2019-01-16T03:12:59.124Z,22.10
2019-01-16T03:15:58.406Z,24.33
2019-01-16T03:18:37.102Z,23.10
2019-01-16T03:21:22.513Z,23.67
2019-01-16T03:24:24.778Z,23.87
2019-01-16T03:27:20.308Z,24.30
2019-01-16T03:30:19.535Z,24.80
2019-01-16T03:33:05.266Z,24.80
2019-01-16T03:36:03.984Z,26.07
2019-01-16T03:38:53.705Z,25.53
2019-01-16T03:41:41.623Z,24.10
2019-01-16T03:44:40.377Z,25.13
2019-01-16T03:47:26.067Z,27.47
2019-01-16T03:50:20.566Z,26.83
2019-01-16T03:53:07.714Z,26.43
2019-01-16T03:55:48.297Z,27.00
2019-01-16T03:58:29.641Z,28.93
2019-01-16T04:01:17.198Z,27.00
2019-01-16T04:04:06.837Z,26.40
2019-01-16T04:06:53.774Z,27.90
2019-01-16T04:09:47.576Z,27.80
2019-01-16T04:12:32.815Z,28.60
2019-01-16T04:15:18.681Z,27.70
2019-01-16T04:18:08.220Z,28.30
2019-01-16T04:20:46.801Z,29.07
2019-01-16T04:23:24.965Z,26.90
2019-01-16T04:26:11.145Z,29.37
2019-01-16T04:28:44.854Z,28.93
2019-01-16T04:31:30.696Z,30.07
2019-01-16T04:34:17.807Z,29.43
2019-01-16T04:37:03.529Z,28.70
2019-01-16T04:39:59.671Z,30.60
2019-01-16T04:42:42.722Z,28.93
2019-01-16T04:45:47.814Z,28.60
2019-01-16T04:48:30.520Z,28.97
2019-01-16T04:51:17.427Z,27.80
2019-01-16T04:54:10.254Z,30.10
2019-01-16T04:56:49.781Z,28.10
2019-01-16T04:59:42.717Z,28.90
2019-01-16T05:02:35.970Z,25.60
2019-01-16T05:05:27.184Z,27.67
2019-01-16T05:08:12.711Z,28.30
2019-01-16T05:10:58.841Z,26.97
2019-01-16T05:13:35.869Z,26.17
2019-01-16T05:16:26.043Z,26.63
2019-01-16T05:19:12.776Z,26.23
2019-01-16T05:22:11.979Z,26.77
2019-01-16T05:25:04.805Z,24.40
2019-01-16T05:27:50.147Z,23.20
2019-01-16T05:30:35.891Z,23.60
2019-01-16T05:33:12.004Z,24.67
2019-01-16T05:35:58.109Z,22.70
2019-01-16T05:38:43.676Z,23.03
2019-01-16T05:41:29.066Z,22.03
2019-01-16T05:44:21.773Z,24.60
2019-01-16T05:47:04.728Z,22.23
2019-01-16T05:49:50.324Z,24.10
2019-01-16T05:52:39.921Z,22.30
2019-01-16T05:55:19.842Z,22.70
2019-01-16T05:58:02.861Z,23.67
2019-01-16T06:00:55.648Z,21.33
2019-01-16T06:03:40.233Z,21.70
2019-01-16T06:06:29.863Z,22.60
2019-01-16T06:09:17.200Z,22.50
2019-01-16T06:12:02.552Z,23.67
2019-01-16T06:14:58.449Z,22.00
2019-01-16T06:17:40.338Z,21.57
2019-01-16T06:20:35.167Z,21.40
2019-01-16T06:23:20.996Z,21.60
2019-01-16T06:25:59.657Z,21.53
2019-01-16T06:28:46.617Z,20.30
2019-01-16T06:31:33.189Z,19.60
2019-01-16T06:34:20.156Z,20.70
2019-01-16T06:36:54.951Z,20.80
2019-01-16T06:39:40.261Z,19.47
2019-01-16T06:42:25.884Z,19.27
2019-01-16T06:45:20.297Z,19.00
2019-01-16T06:48:18.960Z,18.70
2019-01-16T06:50:54.436Z,18.70
2019-01-16T06:53:39.940Z,18.87
2019-01-16T06:56:22.413Z,17.47
2019-01-16T06:59:08.556Z,18.50
2019-01-16T07:02:01.365Z,19.10
2019-01-16T07:04:41.740Z,19.23
2019-01-16T07:07:25.853Z,18.23
2019-01-16T07:10:07.051Z,18.97
2019-01-16T07:12:59.876Z,17.90
2019-01-16T07:15:38.048Z,16.97
2019-01-16T07:18:19.969Z,17.87
2019-01-16T07:21:18.755Z,16.10
2019-01-16T07:24:08.503Z,17.70
2019-01-16T07:26:58.387Z,17.40
2019-01-16T07:29:42.601Z,16.27
2019-01-16T07:32:35.353Z,16.30
2019-01-16T07:35:35.100Z,14.90
2019-01-16T07:38:20.066Z,16.53
2019-01-16T07:41:06.932Z,16.83
2019-01-16T07:43:49.114Z,17.37
2019-01-16T07:46:35.287Z,18.00
2019-01-16T07:49:25.002Z,17.33
2019-01-16T07:52:08.461Z,16.50
2019-01-16T07:54:53.956Z,16.87
2019-01-16T07:57:39.818Z,16.53
2019-01-16T08:00:44.660Z,18.03
2019-01-16T08:03:43.517Z,16.40
2019-01-16T08:06:30.409Z,17.57
2019-01-16T08:09:20.243Z,17.23
2019-01-16T08:12:05.876Z,16.20
2019-01-16T08:15:10.775Z,16.70
2019-01-16T08:17:56.181Z,17.27
2019-01-16T08:20:39.859Z,15.87
2019-01-16T08:23:26.825Z,15.70
2019-01-16T08:26:19.409Z,15.83
2019-01-16T08:29:04.633Z,15.57
2019-01-16T08:31:54.585Z,15.70
2019-01-16T08:34:59.416Z,16.87
2019-01-16T08:37:55.377Z,15.47
2019-01-16T08:40:48.308Z,15.90
2019-01-16T08:43:35.329Z,17.17
2019-01-16T08:46:22.350Z,17.37
2019-01-16T08:49:09.376Z,17.20
2019-01-16T08:51:54.778Z,17.87
2019-01-16T08:54:50.661Z,18.53
2019-01-16T08:57:33.830Z,16.30
2019-01-16T09:00:20.275Z,18.10
2019-01-16T09:03:15.814Z,17.50
2019-01-16T09:06:37.271Z,16.70
2019-01-16T09:09:26.162Z,19.10
2019-01-16T09:12:11.806Z,17.30
2019-01-16T09:14:57.702Z,17.07
2019-01-16T09:17:34.478Z,18.73
2019-01-16T09:20:23.347Z,18.20
2019-01-16T09:23:04.058Z,19.37
2019-01-16T09:25:53.922Z,22.30
2019-01-16T09:28:46.627Z,20.07
2019-01-16T09:31:33.641Z,19.03
2019-01-16T09:34:10.989Z,19.57
2019-01-16T09:40:01.364Z,21.40
2019-01-16T09:42:51.018Z,19.47
2019-01-16T09:45:40.722Z,19.30
2019-01-16T09:48:20.315Z,19.83
2019-01-16T09:51:01.748Z,20.10
2019-01-16T09:53:45.687Z,18.57
2019-01-16T09:56:31.202Z,20.30
2019-01-16T09:59:12.138Z,17.13
2019-01-16T10:02:13.932Z,19.60
2019-01-16T10:05:14.673Z,17.93
2019-01-16T10:08:05.793Z,17.30
2019-01-16T10:10:55.782Z,18.17
2019-01-16T10:13:36.183Z,17.23
2019-01-16T10:16:21.481Z,16.87
2019-01-16T10:19:01.735Z,17.07
2019-01-16T10:21:47.063Z,16.80
2019-01-16T10:24:32.860Z,17.97
2019-01-16T10:27:13.473Z,17.80
2019-01-16T10:29:59.030Z,18.10
2019-01-16T10:32:46.085Z,17.50
2019-01-16T10:35:33.221Z,17.37
2019-01-16T10:38:21.366Z,16.97
2019-01-16T10:41:10.942Z,19.40
2019-01-16T10:44:04.083Z,18.37
2019-01-16T10:47:03.045Z,17.57
2019-01-16T10:49:49.115Z,18.63
2019-01-16T10:52:48.304Z,18.10
2019-01-16T10:55:34.174Z,19.40
2019-01-16T10:58:22.496Z,18.47
2019-01-16T11:01:08.115Z,18.70
2019-01-16T11:03:53.807Z,18.43
2019-01-16T11:06:53.106Z,16.83
2019-01-16T11:09:43.942Z,17.07
2019-01-16T11:12:46.326Z,18.00
2019-01-16T11:15:37.380Z,18.30
2019-01-16T11:18:23.279Z,17.97
2019-01-16T11:21:14.275Z,15.70
2019-01-16T11:24:01.322Z,16.07
2019-01-16T11:26:58.821Z,16.03
2019-01-16T11:29:40.183Z,15.27
2019-01-16T11:32:27.311Z,15.07
2019-01-16T11:35:06.025Z,13.47
2019-01-16T11:37:58.911Z,14.47
2019-01-16T11:40:48.738Z,14.70
2019-01-16T11:43:37.737Z,13.00
2019-01-16T11:46:24.279Z,12.20
2019-01-16T11:49:11.678Z,12.37
2019-01-16T11:51:48.710Z,11.30
2019-01-16T11:54:35.729Z,11.23
2019-01-16T11:57:22.905Z,10.50
2019-01-16T12:00:11.793Z,10.10
2019-01-16T12:02:56.430Z,10.67
2019-01-16T12:05:43.396Z,10.30
2019-01-16T12:08:38.069Z,10.77
2019-01-16T12:11:23.727Z,10.30
2019-01-16T12:14:10.696Z,10.90
2019-01-16T12:16:57.825Z,10.93
2019-01-16T12:19:53.453Z,10.20
2019-01-16T12:22:40.565Z,9.60
2019-01-16T12:25:26.526Z,10.17
2019-01-16T12:28:16.230Z,10.53
2019-01-16T12:30:58.295Z,10.03
2019-01-16T12:33:50.683Z,11.30
2019-01-16T12:36:43.269Z,10.70
2019-01-16T12:39:30.257Z,9.60
2019-01-16T12:42:16.076Z,9.70
2019-01-16T12:45:01.879Z,11.80
2019-01-16T12:47:51.690Z,9.47
2019-01-16T12:50:34.943Z,9.10
2019-01-16T12:53:24.715Z,8.80
2019-01-16T12:56:04.821Z,9.20
2019-01-16T12:59:10.292Z,9.40
2019-01-16T13:02:00.226Z,9.23
2019-01-16T13:04:51.752Z,9.17
2019-01-16T13:07:37.401Z,8.97
2019-01-16T13:10:31.839Z,10.83
2019-01-16T13:13:31.246Z,8.00
2019-01-16T13:16:14.908Z,7.50
2019-01-16T13:19:13.863Z,8.63
2019-01-16T13:22:05.714Z,7.53
2019-01-16T13:24:52.790Z,7.50
2019-01-16T13:27:54.898Z,9.27
2019-01-16T13:30:42.690Z,7.87
2019-01-16T13:33:32.669Z,8.40
2019-01-16T13:36:32.247Z,8.00
2019-01-16T13:39:37.306Z,8.10
2019-01-16T13:42:21.125Z,7.20
2019-01-16T13:45:01.834Z,7.30
2019-01-16T13:47:48.999Z,7.60
2019-01-16T13:50:32.886Z,7.33
2019-01-16T13:53:29.178Z,7.70
2019-01-16T13:56:10.551Z,7.67
2019-01-16T13:58:50.399Z,7.90
2019-01-16T14:01:49.433Z,8.80
2019-01-16T14:04:40.438Z,7.60
2019-01-16T14:07:21.435Z,7.30
2019-01-16T14:10:08.439Z,7.80
2019-01-16T14:12:45.618Z,7.87
2019-01-16T14:15:44.959Z,8.40
2019-01-16T14:18:37.931Z,9.00
2019-01-16T14:21:23.195Z,8.90
2019-01-16T14:24:09.460Z,9.80
2019-01-16T14:27:05.608Z,9.40
2019-01-16T14:29:55.192Z,8.97
2019-01-16T14:32:40.543Z,9.80
2019-01-16T14:35:45.892Z,9.17
2019-01-16T14:38:38.985Z,10.60
2019-01-16T14:41:25.471Z,10.70
2019-01-16T14:44:21.399Z,10.33
2019-01-16T14:47:07.353Z,9.70
2019-01-16T14:49:52.087Z,11.07
2019-01-16T14:52:41.811Z,9.57
2019-01-16T14:55:41.320Z,11.77
2019-01-16T14:58:26.014Z,10.40
2019-01-16T15:01:11.923Z,11.37
2019-01-16T15:04:04.767Z,11.70
2019-01-16T15:06:50.542Z,12.07
2019-01-16T15:09:37.643Z,11.43
2019-01-16T15:12:28.460Z,11.70
2019-01-16T15:15:21.430Z,11.77
2019-01-16T15:18:07.307Z,12.37
2019-01-16T15:20:53.068Z,11.60
2019-01-16T15:23:38.745Z,14.10
2019-01-16T15:26:25.707Z,13.87
2019-01-16T15:29:07.917Z,15.07
2019-01-16T15:31:47.668Z,14.77
2019-01-16T15:34:35.266Z,16.27
2019-01-16T15:37:21.342Z,15.80
2019-01-16T15:40:17.601Z,17.23
2019-01-16T15:43:04.698Z,16.17
2019-01-16T15:45:45.746Z,15.53
2019-01-16T15:48:31.462Z,15.90
2019-01-16T15:51:17.842Z,16.10
2019-01-16T15:54:23.948Z,23.20
2019-01-16T15:57:22.253Z,13.83
2019-01-16T16:00:21.702Z,13.33
2019-01-16T16:02:58.391Z,13.73
2019-01-16T16:05:51.290Z,12.93
2019-01-16T16:08:37.122Z,13.97
2019-01-16T16:11:26.651Z,16.07
2019-01-16T16:14:13.395Z,13.87
2019-01-16T16:16:52.754Z,13.80
2019-01-16T16:19:48.842Z,12.47
2019-01-16T16:22:54.242Z,12.50
2019-01-16T16:25:33.015Z,12.87
2019-01-16T16:28:20.225Z,10.93
2019-01-16T16:31:00.592Z,12.07
2019-01-16T16:33:53.738Z,13.00
2019-01-16T16:36:40.675Z,12.03
2019-01-16T16:39:33.877Z,13.00
2019-01-16T16:42:16.627Z,12.60
2019-01-16T16:45:02.229Z,11.70
2019-01-16T16:47:48.726Z,13.17
2019-01-16T16:50:34.623Z,11.40
2019-01-16T16:53:21.761Z,11.63
2019-01-16T16:56:07.009Z,12.30
2019-01-16T16:59:04.813Z,13.00
2019-01-16T17:02:10.523Z,11.57
2019-01-16T17:04:56.482Z,11.87
2019-01-16T17:07:46.455Z,10.60
2019-01-16T17:10:42.222Z,10.63
2019-01-16T17:13:27.926Z,10.67
2019-01-16T17:16:17.874Z,10.90
2019-01-16T17:18:56.721Z,11.63
2019-01-16T17:21:35.151Z,10.70
2019-01-16T17:24:16.098Z,11.43
2019-01-16T17:27:00.936Z,10.63
2019-01-16T17:29:46.625Z,11.37
2019-01-16T17:32:36.451Z,11.20
2019-01-16T17:35:14.549Z,11.77
2019-01-16T17:38:00.547Z,9.90
2019-01-16T17:40:50.533Z,10.80
2019-01-16T17:43:30.118Z,11.00
2019-01-16T17:46:22.551Z,11.20
2019-01-16T17:49:01.922Z,9.67
2019-01-16T17:51:47.939Z,12.13
2019-01-16T17:54:40.102Z,11.20
2019-01-16T17:57:27.130Z,11.63
2019-01-16T18:00:17.014Z,13.77
2019-01-16T18:02:53.458Z,13.43
2019-01-16T18:05:41.024Z,11.90
2019-01-16T18:08:37.282Z,12.13
2019-01-16T18:11:39.216Z,11.80
2019-01-16T18:14:20.254Z,14.00
2019-01-16T18:17:16.762Z,12.73
2019-01-16T18:20:09.068Z,13.37
2019-01-16T18:23:00.149Z,12.50
2019-01-16T18:25:49.941Z,12.90
2019-01-16T18:28:34.942Z,13.40
2019-01-16T18:31:15.115Z,13.73
2019-01-16T18:34:02.359Z,14.40
2019-01-16T18:36:38.875Z,13.93
2019-01-16T18:39:42.794Z,13.50
2019-01-16T18:42:28.114Z,14.67
2019-01-16T18:45:24.543Z,13.33
2019-01-16T18:48:31.392Z,14.93
2019-01-16T18:51:22.867Z,14.07
2019-01-16T18:54:24.907Z,14.90
2019-01-16T18:57:14.223Z,15.20
2019-01-16T18:59:53.071Z,17.90
2019-01-16T19:02:35.434Z,16.30
2019-01-16T19:05:21.892Z,14.37
2019-01-16T19:08:06.424Z,14.60
2019-01-16T19:11:12.978Z,13.10
2019-01-16T19:13:52.468Z,13.70
2019-01-16T19:16:39.558Z,13.80
2019-01-16T19:19:32.887Z,13.07
2019-01-16T19:22:18.679Z,14.20
2019-01-16T19:25:18.006Z,13.80
2019-01-16T19:27:56.999Z,14.10
2019-01-16T19:30:47.041Z,14.30
2019-01-16T19:33:32.978Z,14.27
2019-01-16T19:36:16.650Z,13.13
2019-01-16T19:39:02.240Z,12.47
2019-01-16T19:41:50.207Z,13.00
2019-01-16T19:44:43.703Z,13.23
2019-01-16T19:47:30.849Z,13.50
2019-01-16T19:50:10.623Z,12.80
2019-01-16T19:53:13.032Z,12.80
2019-01-16T19:56:01.611Z,12.57
2019-01-16T19:58:48.657Z,13.57
2019-01-16T20:01:34.383Z,14.60
2019-01-16T20:04:27.667Z,13.40
2019-01-16T20:10:12.500Z,13.17
2019-01-16T20:13:14.663Z,14.13
2019-01-16T20:15:53.743Z,15.30
2019-01-16T20:18:33.697Z,14.73
2019-01-16T20:21:30.000Z,14.63
2019-01-16T20:24:17.033Z,13.20
2019-01-16T20:27:03.154Z,15.20
2019-01-16T20:29:52.906Z,13.90
2019-01-16T20:32:49.123Z,15.87
2019-01-16T20:35:39.518Z,14.47
2019-01-16T20:38:29.185Z,15.13
2019-01-16T20:41:11.919Z,14.77
2019-01-16T20:43:50.570Z,13.17
2019-01-16T20:46:40.487Z,13.17
2019-01-16T20:49:33.843Z,13.30
2019-01-16T20:52:14.722Z,12.83
2019-01-16T20:55:07.407Z,12.43
2019-01-16T20:57:53.110Z,13.10
2019-01-16T21:00:35.154Z,12.87
2019-01-16T21:03:22.758Z,12.93
2019-01-16T21:06:10.097Z,12.33
2019-01-16T21:08:56.418Z,12.27
2019-01-16T21:11:43.867Z,12.30
2019-01-16T21:14:29.489Z,13.43
2019-01-16T21:17:14.858Z,11.80
2019-01-16T21:20:07.790Z,12.50
2019-01-16T21:22:53.558Z,12.80
2019-01-16T21:25:34.726Z,12.40
2019-01-16T21:28:18.401Z,11.83
2019-01-16T21:31:13.295Z,12.60
2019-01-16T21:34:03.457Z,13.00
2019-01-16T21:36:53.351Z,12.60
2019-01-16T21:39:40.429Z,12.90
2019-01-16T21:42:26.136Z,12.27
2019-01-16T21:45:28.346Z,12.53
2019-01-16T21:48:18.263Z,14.60
2019-01-16T21:50:55.907Z,13.30
2019-01-16T21:53:43.895Z,12.13
2019-01-16T21:56:29.320Z,13.83
2019-01-16T21:59:15.221Z,13.70
2019-01-16T22:02:00.879Z,14.10
2019-01-16T22:04:53.602Z,13.10
2019-01-16T22:07:39.494Z,13.07
2019-01-16T22:10:30.492Z,13.57
2019-01-16T22:13:17.536Z,14.10
2019-01-16T22:16:00.570Z,13.87
2019-01-16T22:18:54.146Z,13.23
2019-01-16T22:21:41.232Z,14.37
2019-01-16T22:24:14.819Z,13.83
2019-01-16T22:26:56.053Z,14.60
2019-01-16T22:29:42.293Z,13.43
2019-01-16T22:32:27.992Z,15.37
2019-01-16T22:35:33.152Z,14.13
2019-01-16T22:38:08.667Z,14.30
2019-01-16T22:41:05.046Z,14.57
2019-01-16T22:43:58.117Z,14.70
2019-01-16T22:46:58.993Z,14.73
2019-01-16T22:49:46.496Z,14.43
2019-01-16T22:52:45.380Z,15.87
2019-01-16T22:55:32.527Z,15.37
2019-01-16T22:58:22.457Z,17.43
2019-01-16T23:01:10.060Z,17.20
2019-01-16T23:04:02.196Z,16.53
2019-01-16T23:06:37.594Z,16.07
2019-01-16T23:09:27.048Z,17.47
2019-01-16T23:12:04.790Z,18.57
2019-01-16T23:15:10.082Z,18.87
2019-01-16T23:18:03.230Z,17.27
2019-01-16T23:20:53.252Z,17.30
2019-01-16T23:23:39.074Z,17.37
2019-01-16T23:26:12.650Z,17.10
2019-01-16T23:28:59.790Z,16.47
2019-01-16T23:31:49.639Z,19.00
2019-01-16T23:34:51.814Z,16.73
2019-01-16T23:37:27.978Z,17.77
2019-01-16T23:40:08.979Z,17.70
2019-01-16T23:43:02.018Z,19.27
2019-01-16T23:45:56.117Z,19.07
2019-01-16T23:48:31.777Z,18.63
2019-01-16T23:51:12.010Z,19.17
2019-01-16T23:54:14.052Z,18.27
2019-01-16T23:57:06.764Z,19.03
2019-01-16T23:59:55.328Z,18.37
